This site, now in its 15th season, is a labour of love and fun from one of Ottawa's most avid time trialists and number crunchers. It adheres to and is permitted by the laws of Canada, promotes the objectives of every bicycle club whose results are shown, and is donated free of charge by myself for your enjoyment and usage. If you would like results from series you ride in to be shown here, give me (celia@drmath.ca) a shout!


Index Page
ATT OTT WTT AATT CFCTT VVVTT
Help resultformat:
Case-sensitive

OBC Open TT Series - 2008-May-15 - 15km (Rockliffe Pkwy) (EvtFactor = 0.8974)

Weather (18:00): Sunny. Temp.: 17C, Humidity: 33%, Dew Point: 1C, Wind: N 21km/h, Pressure: 101.6kPa, Visibility: 24km.
Weather (19:00): Mainly Sunny. Temp.: 17C, Humidity: 31%, Dew Point: 0C, Wind: NNW 21km/h, Pressure: 101.6kPa, Visibility: 24km.
Weather (20:00): Mainly Sunny. Temp.: 15C, Humidity: 35%, Dew Point: -1C, Wind: N 11km/h, Pressure: 101.6kPa, Visibility: 24km.

Send photos with description (when/where/what) of yourself on or off of bike to celia@drmath.ca

Four of these results appeared on the OBC site circa 13:30 on 2008-May-16, with the rest appearing around 15:30. They are available here for your added pleasure.
If you would like to use the full functionality of this site and your name is followed by "Need YOB", please send me your birth year
.

The fastest day thus far this season, 37 out of the 47 who had ridden earlier this year improved upon their previous season-series best. In fact 22 of the 71 for whom we have earlier times improved upon their previous database best. Michael Nash and Sue Schlatter were out for their first OTT rides of 2008 with the fastest early season OTT performances ever for men or women. Congratulations to Florence Laplante-Lamarche who tied the Cadet female database record set by Kathy Tremblay way back on 1998-Jun-18.

 
 

BESTS?
 
1 Nash, Michael  OBC 19:09 46.997 1/78 VBM 1/21  
2 Rendall, Glen  RWR 20:01 44.963 2/78 VAM 1/8  
3 Amos, Ron  OBC/RWR 20:05 44.813 3/78 VBM 2/21 0.9900
4 Datars, Paul  OBC/RWR 20:06 44.776 4/78 VCM 1/12 1.0276
5 Sudac, Rick  OBC/RWR 20:16 44.408 5/78 VCM 2/12  
6 Graves, Kevin WQW 20:18 44.335 6/78 SEM 1/6  
7 Hawkes, Craig OBC/EMD 20:29 43.938 7/78 VAM 2/8 1.0346
8 Hanrahan, Mason EUR 20:36 43.689 8/78 JUM 1/4 1.0569
9 Devisscher, Thomas APK 20:44 43.408 9/78 SEM 2/6 0.9879
10 Gee, Jon OBC 20:47 43.304 10/78 VBM 3/21  
11 Schlatter, Sue  EMD 20:58 42.925 11/78 VBF 1/8  
12 Sidhu, Joël ULT 21:05 42.688 12/78 SEM 3/6 1.2317
13 Munden, David EMD 21:08 42.587 13/78 VAM 3/8 1.0752
14 Martel, Brad RWR 21:11 42.486 14/78 VBM 4/21  
15 van den Ham, Douglas  OBC 21:20 42.188 15/78 SEM 4/6 0.9585
16 Wright, Sean CYC 21:24 42.056 16/78 VBM 5/21 0.9837
17 Romkey, Gary OBC/RWR 21:35 41.699 17/78 VDM 1/5 0.9816
18 Zappe, Erich RWR 21:36 41.667 18/78 VBM 6/21 0.9793
19 Dal-Cin, Matteo  EUR 21:40 41.538 19/78 JUM 2/4 1.1099
20 Morvan, Jacques  OBC 21:41 41.507 20/78 VDM 2/5 1.1323
21 Campbell, Colin  OBC 21:45 41.379 21/78 VBM 7/21 1.0255
Cataford, Alex OBC 21:45 41.379 21/78 CAM 1/2 1.1021
Damen, Trevor OBC/EUR 21:45 41.379 21/78 JUM 3/4 1.0231
24 Cameron, Allen  OBC/RWR 21:59 40.940 24/78 VCM 3/12  
25 Leclerc, Louis-Philippe IND 22:00 40.909 25/78 SEM 5/6 1.0069
26 Conn, Peter OBC 22:06 40.724 26/78 VBM 8/21  
27 McKay, Allison  OBC/RDO 22:10 40.602 27/78 VBF 2/8  
28 Hess, Detlef OBC 22:14 40.480 28/78 VCM 4/12 1.0503
29 Matte, Sophie  OBC/EMD 22:19 40.329 29/78 VAF 1/3 1.0226
30 Thomas, Trevor CYC 22:27 40.089 30/78 VAM 4/8 1.0590
31 Gauthier, Antoine EUR 22:28 40.059 31/78 SEM 6/6 0.9735
32 Lapointe, Marc EMD 22:42 39.648 32/78 VAM 5/8  
33 Olson, Chris CYC 22:48 39.474 33/78 VBM 9/21  
34 Martin, David OBC 23:01 39.102 34/78 VAM 6/8 1.9864
35 Sargent, Larry OBC 23:08 38.905 35/78 VCM 5/12 1.0640
36 Tongoc, Serge RWR 23:18 38.627 36/78 VBM 10/21 1.0347
37 Lankenau, David --- 23:19 38.599 37/78 VBM 11/21 1.8584
38 Wilkinson, Ross OBC 23:21 38.544 38/78 VBM 12/21  
39 Moerman, Bram  OBC 23:22 38.516 39/78 VDM 3/5 1.0193
Pazdzior, Ellen  OBC 23:22 38.516 39/78 VCF 1/3  
41 Posthuma, Hans  OBC 23:28 38.352 41/78 VCM 6/12 1.0258
42 Morewood, Colin OBC 23:42 37.975 42/78 CAM 2/2  
43 Coney, Sarah OBC 23:55 37.631 43/78 SEF 1/3  
44 Coney, Michael OBC 24:06 37.344 44/78 VDM 4/5 1.0314
45 Kirton, Ian OBC 24:10 37.241 45/78 VAM 7/8  
46 Turner, Paul OBC 24:17 37.062 46/78 VCM 7/12  
47 Paul, Richard  OBC 24:22 36.936 47/78 VCM 8/12 1.0395
Wright, David OBC/RWR 24:22 36.936 47/78 VBM 13/21  
49 Armstrong, Brian OBC 24:26 36.835 49/78 VBM 14/21  
Coburn, Richard OBC 24:26 36.835 49/78 VBM 14/21  
51 Dorego, Jean-Louis OBC 24:28 36.785 51/78 VCM 9/12 1.0626
52 Austen, Ian  OBC 24:32 36.685 52/78 VCM 10/12  
53 Laplante-Lamarche, Florence OBC 24:51 36.217 53/78 CAF 1/1 1.2380
54 McInnis, Celia  OBC/ABC 24:55 36.120 54/78 VCF 2/3 1.0824
55 Saint-Arnaud-Watt, Chloe ULT 24:57 36.072 55/78 SEF 2/3  
56 Blais, Sylvain OBC 24:59 36.024 56/78 VAM 8/8 1.0283
57 Gagné, Marc  OBC 25:04 35.904 57/78 VBM 16/21 1.0967
58 Hicks, Bob  OBC 25:10 35.762 58/78 VDM 5/5 1.0608
59 Carlin, Andrew OBC 25:11 35.738 59/78 VBM 17/21 1.0732
60 Simard, Martin OBC 25:20 35.526 60/78 VBM 18/21 0.9980
61 Konantz, Patricia  OBC 25:32 35.248 61/78 VCF 3/3 1.0721
62 Robitaille, Brian 
(On buddy's road bike!)
OBC 25:37 35.133 62/78 VBM 19/21  
63 Georges, Patrick OBC 25:47 34.906 63/78 VBM 20/21 0.9522
64 Imbrogno, Giorgio  OBC 25:49 34.861 64/78 VCM 11/12 1.0653
65 Ingham, Alison  OBC 25:50 34.839 65/78 VBF 3/8  
66 Marleau, Dianne  OBC/RWR 25:51 34.816 66/78 VBF 4/8 1.0214
67 Rees, Stephanie  OBC 26:23 34.112 67/78 VAF 2/3 1.0817
68 Evju, Are OBC 26:39 33.771 68/78 JUM 4/4 1.1108
69 Woods, Bob  OBC 26:45 33.645 69/78 VCM 12/12  
70 Levi, Cheryl OBC 26:52 33.499 70/78 VBF 5/8  
71 McLaren, Louise  OBC 27:02 33.292 71/78 VBF 6/8 1.0488
Smith, Stephanie OBC 27:02 33.292 71/78 VAF 3/3 1.1190
73 Liechti, Hans-Peter OBC 27:26 32.807 73/78 VBM 21/21  
74 Gebiard, George OBC 28:05 32.047 74/78 XXM 1/1  
75 Hart, Kate OBC/RWR 28:07 32.009 75/78 VBF 7/8 1.0017
76 Gee, Derek  OBC 29:19 30.699 76/78 PWM 1/1  
77 Jay, Sheri OBC 29:40 30.337 77/78 VBF 8/8 0.9733
78 Boutin, Louise  OBC 31:09 28.892 78/78 SEF 3/3  
 
Average Speed of all of the above 78 finishes (1170km in 30:47:04):38.006
>>>Average of the Average Speeds for these 78 finishes38.415<<<
 

The number of data records shown above is 78
The server processing of your query took: 1 wallclock secs ( 0.10 usr + 0.01 sys = 0.11 CPU)

Thanks to our Helpers: Ron Amos, Avery Burdett, Ingrid Coney, Gunter Hauschildt, Alex McKnight, Geoffrey Wright.

     


Mar 21 (Good Friday)
Apr 24
May 1 May 6 (10km) May 8 May 13 (10km)
  May 15  
May 20 May 20 (10km) May 22 May 27 May 27 (10km) May 29
Jun 1 (40km) Jun 3 Jun 3 Jun 5 Jun 10 Jun 10 Jun 12 Jun 17 Jun 17 Jun 19 Jun 24 Jun 24 Jun 26
Jul 1 (cancelled - ) Jul 2 Jul 3 Jul 6 (40km) Jul 8 Jul 8 Jul 10 Jul 15 Jul 15 Jul 17 Jul 22 Jul 22 Jul 24 Jul 27 (40km) Jul 29 Jul 29 Jul 31
Aug 5 Aug 5 Aug 7 Aug 10 (40km) Aug 12 Aug 12 Aug 14 Aug 19 Aug 19 Aug 21 Aug 26 Aug 26 (Invitational) Aug 28
Sep 2 Sep 4 Sep 7 (40km) Sep 9 Sep 11 Sep 16 Sep 21 (40km) Sep 23 Sep 30

OTT Rankings
Best       Best by category
WTT Rankings for OBC Members
5 Best Speeds     5 Best Speeds by category
OBC Member Best Three 15km Rankings
Overall     by category     age-Hcap Female   age-Hcap Male
OBC BAR Ranking
Overall     by category     Rider "Consistency-Graph"
ABC BAR Ranking
Overall     by category     Rider "Consistency-Graph"
Other years
TT Calculator All TT People All TT events
ABC Home VVV Home
CKAP GOLD MEDAL
Other Links

Note: OTT data from 2003 through 2006-Apr-14 and 2007-Apr-06-? and WTT from 2008-? is taken from the official OBC site.

Please send your comments and suggestions to: Celia McInnis
Copyright © 1998-2011 Celia McInnis. All rights reserved. Links are welcomed.